Time;durP1;ratioP1;P1;durP2;ratioP2;P2;SDS_P1;SDS_P2;PMS_P1;PMS_P2;Temp;Humidity;BMP_temperature;BMP_pressure;BME280_temperature;BME280_humidity;BME280_pressure;Samples;Min_cycle;Max_cycle;Signal;HPM_P1;HPM_P2
2022/09/12 00:01:25;;;;;;;;;;;20.60;51.90;;;;;;453033;262;1236;-51
2022/09/12 00:03:26;;;;;;;;;;;20.60;51.90;;;;;;452972;263;1229;-51
2022/09/12 00:05:27;;;;;;;;;;;20.60;51.90;;;;;;452658;263;1275;-52
2022/09/12 00:07:29;;;;;;;;;;;20.60;51.90;;;;;;453067;263;1394;-51
2022/09/12 00:09:30;;;;;;;;;;;20.60;51.90;;;;;;452817;263;1304;-51
2022/09/12 00:11:31;;;;;;;;;;;20.60;51.90;;;;;;453062;263;1283;-51
2022/09/12 00:13:33;;;;;;;;;;;20.60;51.90;;;;;;452666;263;1310;-51
2022/09/12 00:15:34;;;;;;;;;;;20.60;51.90;;;;;;452645;263;1392;-51
2022/09/12 00:17:35;;;;;;;;;;;20.60;52.00;;;;;;452632;263;2220;-52
2022/09/12 00:19:37;;;;;;;;;;;20.60;51.90;;;;;;453029;263;1298;-51
2022/09/12 00:21:38;;;;;;;;;;;20.60;51.90;;;;;;453038;263;1374;-51
2022/09/12 00:23:39;;;;;;;;;;;20.60;51.90;;;;;;452990;263;1328;-52
2022/09/12 00:25:40;;;;;;;;;;;20.60;51.90;;;;;;452882;263;1297;-52
2022/09/12 00:27:42;;;;;;;;;;;20.60;52.00;;;;;;452714;263;1264;-52
2022/09/12 00:29:43;;;;;;;;;;;20.60;51.90;;;;;;452598;263;1279;-51
2022/09/12 00:31:44;;;;;;;;;;;20.60;51.90;;;;;;452629;263;1281;-52
2022/09/12 00:33:46;;;;;;;;;;;20.60;51.90;;;;;;453075;262;1389;-51
2022/09/12 00:35:47;;;;;;;;;;;20.60;51.90;;;;;;452471;263;1400;-51
2022/09/12 00:37:48;;;;;;;;;;;20.60;51.90;;;;;;453052;263;2178;-51
2022/09/12 00:39:50;;;;;;;;;;;20.60;51.90;;;;;;452472;263;1341;-51
2022/09/12 00:41:51;;;;;;;;;;;20.60;51.90;;;;;;453048;263;1417;-51
2022/09/12 00:43:52;;;;;;;;;;;20.60;52.00;;;;;;452690;263;1331;-51
2022/09/12 00:45:54;;;;;;;;;;;20.60;51.90;;;;;;453008;263;1236;-52
2022/09/12 00:47:55;;;;;;;;;;;20.60;51.90;;;;;;452689;263;1219;-52
2022/09/12 00:49:56;;;;;;;;;;;20.60;51.90;;;;;;452725;263;1283;-52
2022/09/12 00:51:58;;;;;;;;;;;20.60;51.90;;;;;;453079;263;1253;-51
2022/09/12 00:53:59;;;;;;;;;;;20.60;51.90;;;;;;453074;263;1216;-51
2022/09/12 00:56:00;;;;;;;;;;;20.60;51.90;;;;;;452712;263;1258;-51
2022/09/12 00:58:02;;;;;;;;;;;20.60;52.00;;;;;;452660;263;2217;-51
2022/09/12 01:00:04;;;;;;;;;;;20.60;52.00;;;;;;453104;263;1293;-51
2022/09/12 01:02:06;;;;;;;;;;;20.60;52.00;;;;;;452577;263;1249;-51
2022/09/12 01:04:07;;;;;;;;;;;20.60;52.00;;;;;;452728;263;1498;-51
2022/09/12 01:06:08;;;;;;;;;;;20.60;52.00;;;;;;453090;263;1289;-51
2022/09/12 01:08:09;;;;;;;;;;;20.60;51.90;;;;;;452658;263;1240;-51
2022/09/12 01:10:11;;;;;;;;;;;20.60;51.90;;;;;;452896;263;1360;-51
2022/09/12 01:12:12;;;;;;;;;;;20.60;51.90;;;;;;453098;262;1235;-52
2022/09/12 01:14:13;;;;;;;;;;;20.70;51.90;;;;;;452644;263;1292;-52
2022/09/12 01:16:14;;;;;;;;;;;20.70;51.90;;;;;;452902;263;1344;-52
2022/09/12 01:18:16;;;;;;;;;;;20.70;51.90;;;;;;453107;262;2204;-51
2022/09/12 01:20:17;;;;;;;;;;;20.60;51.90;;;;;;453067;263;1358;-52
2022/09/12 01:22:18;;;;;;;;;;;20.70;52.00;;;;;;453056;263;1319;-51
2022/09/12 01:24:20;;;;;;;;;;;20.60;51.90;;;;;;452894;263;1351;-51
2022/09/12 01:26:21;;;;;;;;;;;20.60;51.90;;;;;;452711;263;1280;-52
2022/09/12 01:28:22;;;;;;;;;;;20.60;51.90;;;;;;453113;262;1337;-52
2022/09/12 01:30:24;;;;;;;;;;;20.60;51.90;;;;;;452789;263;1580;-52
2022/09/12 01:32:25;;;;;;;;;;;20.70;51.90;;;;;;453069;263;1333;-51
2022/09/12 01:34:27;;;;;;;;;;;20.70;51.90;;;;;;453073;263;1263;-51
2022/09/12 01:36:28;;;;;;;;;;;20.60;51.80;;;;;;452675;263;1274;-52
2022/09/12 01:38:30;;;;;;;;;;;20.60;51.80;;;;;;452991;263;2217;-51
2022/09/12 01:40:31;;;;;;;;;;;20.70;51.90;;;;;;452692;263;1622;-52
2022/09/12 01:42:33;;;;;;;;;;;20.70;51.90;;;;;;452666;263;1303;-51
2022/09/12 01:44:33;;;;;;;;;;;20.70;51.90;;;;;;452759;263;2247;-51
2022/09/12 01:46:35;;;;;;;;;;;20.70;51.80;;;;;;452625;263;1716;-51
2022/09/12 01:48:36;;;;;;;;;;;20.70;51.80;;;;;;452773;263;1254;-51
2022/09/12 01:50:37;;;;;;;;;;;20.70;51.90;;;;;;452896;263;1259;-52
2022/09/12 01:52:39;;;;;;;;;;;20.70;51.80;;;;;;452858;263;1409;-52
2022/09/12 01:54:41;;;;;;;;;;;20.70;51.80;;;;;;452646;263;1220;-51
2022/09/12 01:56:41;;;;;;;;;;;20.70;51.80;;;;;;452484;263;1287;-52
2022/09/12 01:58:43;;;;;;;;;;;20.70;51.80;;;;;;453076;263;2221;-52
2022/09/12 02:00:44;;;;;;;;;;;20.70;51.80;;;;;;452633;263;1329;-52
2022/09/12 02:02:49;;;;;;;;;;;20.70;51.80;;;;;;452854;263;1316;-52
2022/09/12 02:04:47;;;;;;;;;;;20.70;51.80;;;;;;452905;263;1526;-52
2022/09/12 02:06:48;;;;;;;;;;;20.70;51.80;;;;;;453155;262;1281;-52
2022/09/12 02:08:50;;;;;;;;;;;20.70;51.80;;;;;;452867;263;1236;-51
2022/09/12 02:10:51;;;;;;;;;;;20.70;51.80;;;;;;452879;263;1418;-52
2022/09/12 02:12:52;;;;;;;;;;;20.70;51.80;;;;;;452759;263;1236;-52
2022/09/12 02:14:54;;;;;;;;;;;20.70;51.80;;;;;;453023;263;1118;-51
2022/09/12 02:16:55;;;;;;;;;;;20.70;51.80;;;;;;452923;263;1662;-51
2022/09/12 02:18:56;;;;;;;;;;;20.70;51.80;;;;;;452612;263;2177;-52
2022/09/12 02:20:59;;;;;;;;;;;20.70;51.70;;;;;;452549;263;1300;-52
2022/09/12 02:22:59;;;;;;;;;;;20.70;51.80;;;;;;452675;263;1742;-51
2022/09/12 02:25:01;;;;;;;;;;;20.70;51.80;;;;;;453100;263;1112;-51
2022/09/12 02:27:02;;;;;;;;;;;20.70;51.80;;;;;;452612;263;1304;-51
2022/09/12 02:29:03;;;;;;;;;;;20.70;51.80;;;;;;453114;263;1148;-51
2022/09/12 02:31:05;;;;;;;;;;;20.70;51.80;;;;;;452709;263;1252;-52
2022/09/12 02:33:06;;;;;;;;;;;20.70;51.80;;;;;;453126;263;1165;-52
2022/09/12 02:35:07;;;;;;;;;;;20.70;51.80;;;;;;453110;263;1091;-51
2022/09/12 02:37:09;;;;;;;;;;;20.70;51.80;;;;;;453038;263;1683;-51
2022/09/12 02:39:10;;;;;;;;;;;20.70;51.80;;;;;;452694;263;2229;-52
2022/09/12 02:41:11;;;;;;;;;;;20.70;51.80;;;;;;453012;263;1274;-52
2022/09/12 02:43:13;;;;;;;;;;;20.70;51.80;;;;;;453051;263;1097;-51
2022/09/12 02:45:14;;;;;;;;;;;20.70;51.80;;;;;;453083;263;1110;-52
2022/09/12 02:47:15;;;;;;;;;;;20.70;51.80;;;;;;452879;263;1271;-52
2022/09/12 02:49:17;;;;;;;;;;;20.70;51.80;;;;;;453112;262;1157;-51
2022/09/12 02:51:18;;;;;;;;;;;20.70;51.80;;;;;;452712;263;1424;-52
2022/09/12 02:53:19;;;;;;;;;;;20.70;51.70;;;;;;452954;263;1093;-52
2022/09/12 02:55:23;;;;;;;;;;;20.70;51.80;;;;;;452772;262;1313;-51
2022/09/12 02:57:22;;;;;;;;;;;20.70;51.80;;;;;;452683;263;2158;-52
2022/09/12 02:59:23;;;;;;;;;;;20.70;51.80;;;;;;453096;263;2161;-52
2022/09/12 03:01:24;;;;;;;;;;;20.70;51.80;;;;;;453048;263;1280;-51
2022/09/12 03:03:26;;;;;;;;;;;20.70;51.80;;;;;;453028;263;1360;-51
2022/09/12 03:05:27;;;;;;;;;;;20.70;51.70;;;;;;452993;263;1315;-51
2022/09/12 03:07:28;;;;;;;;;;;20.70;51.80;;;;;;452794;263;1279;-51
2022/09/12 03:09:30;;;;;;;;;;;20.70;51.80;;;;;;453007;263;1241;-52
2022/09/12 03:11:31;;;;;;;;;;;20.70;51.80;;;;;;453038;263;1294;-52
2022/09/12 03:13:32;;;;;;;;;;;20.70;51.70;;;;;;453090;263;1280;-52
2022/09/12 03:15:34;;;;;;;;;;;20.70;51.70;;;;;;453049;263;1357;-51
2022/09/12 03:17:35;;;;;;;;;;;20.70;51.70;;;;;;453067;263;1264;-52
2022/09/12 03:19:36;;;;;;;;;;;20.70;51.70;;;;;;453105;263;2166;-51
2022/09/12 03:21:38;;;;;;;;;;;20.70;51.70;;;;;;453108;263;1341;-52
2022/09/12 03:23:39;;;;;;;;;;;20.70;51.70;;;;;;453124;263;1337;-52
2022/09/12 03:25:40;;;;;;;;;;;20.70;51.70;;;;;;452662;263;1264;-52
2022/09/12 03:27:42;;;;;;;;;;;20.70;51.70;;;;;;452940;262;1341;-51
2022/09/12 03:29:43;;;;;;;;;;;20.70;51.70;;;;;;452988;263;1277;-52
2022/09/12 03:31:44;;;;;;;;;;;20.70;51.70;;;;;;453102;263;1372;-52
2022/09/12 03:33:46;;;;;;;;;;;20.70;51.70;;;;;;452727;263;1291;-52
2022/09/12 03:35:47;;;;;;;;;;;20.70;51.70;;;;;;452717;263;1320;-52
2022/09/12 03:37:48;;;;;;;;;;;20.70;51.70;;;;;;453096;263;1227;-51
2022/09/12 03:39:50;;;;;;;;;;;20.70;51.70;;;;;;452994;263;2205;-51
2022/09/12 03:41:51;;;;;;;;;;;20.70;51.70;;;;;;453024;263;1214;-51
2022/09/12 03:43:52;;;;;;;;;;;20.70;51.60;;;;;;452836;262;1283;-51
2022/09/12 03:45:54;;;;;;;;;;;20.70;51.70;;;;;;452680;263;1358;-52
2022/09/12 03:47:55;;;;;;;;;;;20.70;51.70;;;;;;452688;263;1427;-52
2022/09/12 03:49:56;;;;;;;;;;;20.70;51.70;;;;;;453083;263;1387;-51
2022/09/12 03:51:58;;;;;;;;;;;20.70;51.60;;;;;;452988;263;1261;-51
2022/09/12 03:53:59;;;;;;;;;;;20.70;51.70;;;;;;452924;263;1306;-52
2022/09/12 03:56:00;;;;;;;;;;;20.70;51.60;;;;;;452789;263;1539;-51
2022/09/12 03:58:01;;;;;;;;;;;20.70;51.70;;;;;;452851;263;2173;-51
2022/09/12 04:00:03;;;;;;;;;;;20.70;51.70;;;;;;452866;263;1401;-52
2022/09/12 04:02:04;;;;;;;;;;;20.70;51.70;;;;;;452666;263;1259;-52
2022/09/12 04:04:05;;;;;;;;;;;20.70;51.70;;;;;;452730;262;1256;-52
2022/09/12 04:06:07;;;;;;;;;;;20.80;51.70;;;;;;452688;263;1421;-52
2022/09/12 04:08:09;;;;;;;;;;;20.80;51.60;;;;;;453118;262;1242;-51
2022/09/12 04:10:10;;;;;;;;;;;20.70;51.60;;;;;;452699;263;1366;-52
2022/09/12 04:12:12;;;;;;;;;;;20.70;51.70;;;;;;453010;263;1256;-50
2022/09/12 04:14:13;;;;;;;;;;;20.70;51.60;;;;;;452608;263;2453;-52
2022/09/12 04:16:14;;;;;;;;;;;20.80;51.60;;;;;;453046;263;1330;-51
2022/09/12 04:18:16;;;;;;;;;;;20.80;51.60;;;;;;452983;263;2178;-51
2022/09/12 04:20:18;;;;;;;;;;;20.80;51.60;;;;;;452827;263;1252;-51
2022/09/12 04:22:19;;;;;;;;;;;20.80;51.60;;;;;;452660;263;1321;-51
2022/09/12 04:24:20;;;;;;;;;;;20.80;51.60;;;;;;452609;263;1419;-52
2022/09/12 04:26:21;;;;;;;;;;;20.70;51.60;;;;;;453038;263;1273;-51
2022/09/12 04:28:22;;;;;;;;;;;20.70;51.60;;;;;;452895;262;1250;-52
2022/09/12 04:30:24;;;;;;;;;;;20.80;51.70;;;;;;452658;263;1284;-51
2022/09/12 04:32:25;;;;;;;;;;;20.80;51.60;;;;;;453124;262;1323;-52
2022/09/12 04:34:26;;;;;;;;;;;20.80;51.60;;;;;;453055;263;1381;-51
2022/09/12 04:36:28;;;;;;;;;;;20.80;51.60;;;;;;452963;263;1338;-52
2022/09/12 04:38:29;;;;;;;;;;;20.80;51.60;;;;;;452550;263;2213;-51
2022/09/12 04:40:31;;;;;;;;;;;20.80;51.60;;;;;;452807;263;1393;-51
2022/09/12 04:42:32;;;;;;;;;;;20.80;51.60;;;;;;452947;263;1337;-51
2022/09/12 04:44:33;;;;;;;;;;;20.80;51.50;;;;;;452938;262;1291;-52
2022/09/12 04:46:34;;;;;;;;;;;20.80;51.50;;;;;;453105;263;1292;-52
2022/09/12 04:48:36;;;;;;;;;;;20.80;51.50;;;;;;453090;263;1245;-51
2022/09/12 04:50:37;;;;;;;;;;;20.80;51.50;;;;;;453056;263;1216;-52
2022/09/12 04:52:39;;;;;;;;;;;20.80;51.60;;;;;;452776;262;1216;-51
2022/09/12 04:54:40;;;;;;;;;;;20.80;51.60;;;;;;452973;263;1302;-52
2022/09/12 04:56:41;;;;;;;;;;;20.80;51.50;;;;;;453088;262;1316;-51
2022/09/12 04:58:42;;;;;;;;;;;20.80;51.60;;;;;;452711;263;2209;-52
2022/09/12 05:00:44;;;;;;;;;;;20.80;51.60;;;;;;452683;263;1362;-51
2022/09/12 05:02:45;;;;;;;;;;;20.80;51.60;;;;;;452671;262;1340;-51
2022/09/12 05:04:46;;;;;;;;;;;20.80;51.60;;;;;;453038;263;1197;-51
2022/09/12 05:06:48;;;;;;;;;;;20.80;51.50;;;;;;453027;263;1183;-52
2022/09/12 05:08:49;;;;;;;;;;;20.80;51.50;;;;;;453058;263;1120;-51
2022/09/12 05:10:50;;;;;;;;;;;20.80;51.50;;;;;;452701;263;1240;-52
2022/09/12 05:12:52;;;;;;;;;;;20.80;51.50;;;;;;452986;263;1214;-52
2022/09/12 05:14:53;;;;;;;;;;;20.80;51.50;;;;;;452649;263;1453;-51
2022/09/12 05:16:58;;;;;;;;;;;20.80;51.50;;;;;;453041;263;1392;-51
2022/09/12 05:18:57;;;;;;;;;;;20.80;51.50;;;;;;452523;263;2210;-52
2022/09/12 05:20:59;;;;;;;;;;;20.80;51.60;;;;;;453048;262;1330;-51
2022/09/12 05:23:00;;;;;;;;;;;20.80;51.50;;;;;;453011;263;1267;-51
2022/09/12 05:25:01;;;;;;;;;;;20.80;51.50;;;;;;452766;263;1207;-51
2022/09/12 05:27:03;;;;;;;;;;;20.80;51.50;;;;;;452629;263;1313;-51
2022/09/12 05:29:04;;;;;;;;;;;20.80;51.50;;;;;;452921;263;2748;-50
2022/09/12 05:31:05;;;;;;;;;;;20.80;51.50;;;;;;452645;263;1260;-51
2022/09/12 05:33:07;;;;;;;;;;;20.80;51.50;;;;;;452757;263;1294;-50
2022/09/12 05:35:08;;;;;;;;;;;20.80;51.50;;;;;;452550;262;1252;-50
2022/09/12 05:37:09;;;;;;;;;;;20.80;51.50;;;;;;452609;263;1374;-50
2022/09/12 05:39:11;;;;;;;;;;;20.80;51.50;;;;;;453076;262;2174;-50
2022/09/12 05:41:12;;;;;;;;;;;20.80;51.50;;;;;;452994;263;1091;-50
2022/09/12 05:43:14;;;;;;;;;;;20.80;51.50;;;;;;452932;262;1170;-50
2022/09/12 05:45:15;;;;;;;;;;;20.80;51.50;;;;;;452460;263;1260;-50
2022/09/12 05:47:17;;;;;;;;;;;20.90;51.50;;;;;;452684;263;1319;-50
2022/09/12 05:49:18;;;;;;;;;;;20.90;51.50;;;;;;452580;263;1564;-50
2022/09/12 05:51:19;;;;;;;;;;;20.80;51.50;;;;;;452234;263;1204;-50
2022/09/12 05:53:20;;;;;;;;;;;20.80;51.50;;;;;;452578;263;1220;-50
2022/09/12 05:55:23;;;;;;;;;;;20.90;51.50;;;;;;452407;263;1400;-50
2022/09/12 05:57:24;;;;;;;;;;;20.90;51.50;;;;;;452901;263;1476;-50
2022/09/12 05:59:27;;;;;;;;;;;20.90;51.50;;;;;;452566;263;2173;-50
2022/09/12 06:01:26;;;;;;;;;;;20.90;51.50;;;;;;452438;262;2027;-50
2022/09/12 06:03:28;;;;;;;;;;;20.90;51.50;;;;;;452766;263;1248;-50
2022/09/12 06:05:30;;;;;;;;;;;20.90;51.50;;;;;;452825;263;1352;-50
2022/09/12 06:07:31;;;;;;;;;;;20.90;51.50;;;;;;452419;263;2497;-50
2022/09/12 06:09:32;;;;;;;;;;;20.90;51.40;;;;;;452653;263;1382;-50
2022/09/12 06:11:33;;;;;;;;;;;20.90;51.50;;;;;;452632;263;1281;-50
2022/09/12 06:13:35;;;;;;;;;;;20.90;51.50;;;;;;452530;263;1248;-50
2022/09/12 06:15:36;;;;;;;;;;;20.90;51.50;;;;;;452574;263;1996;-50
2022/09/12 06:17:37;;;;;;;;;;;20.90;51.40;;;;;;452489;263;1475;-50
2022/09/12 06:19:38;;;;;;;;;;;20.90;51.40;;;;;;452253;263;2216;-50
2022/09/12 06:21:40;;;;;;;;;;;20.90;51.30;;;;;;452354;263;1694;-50
2022/09/12 06:23:41;;;;;;;;;;;20.90;51.20;;;;;;452274;263;1358;-50
2022/09/12 06:25:42;;;;;;;;;;;20.90;51.00;;;;;;452378;263;1180;-50
2022/09/12 06:27:44;;;;;;;;;;;20.90;51.00;;;;;;452695;262;1149;-50
2022/09/12 06:29:45;;;;;;;;;;;20.90;50.70;;;;;;452728;262;2328;-50
2022/09/12 06:31:46;;;;;;;;;;;20.90;50.70;;;;;;452646;263;1104;-50
2022/09/12 06:33:48;;;;;;;;;;;20.90;50.60;;;;;;452537;263;1085;-50
2022/09/12 06:35:49;;;;;;;;;;;20.90;50.50;;;;;;452078;263;1142;-50
2022/09/12 06:37:50;;;;;;;;;;;20.90;50.40;;;;;;452503;263;1067;-50
2022/09/12 06:39:52;;;;;;;;;;;20.90;50.30;;;;;;452561;262;2233;-50
2022/09/12 06:41:53;;;;;;;;;;;21.00;50.30;;;;;;452324;262;1313;-50
2022/09/12 06:43:54;;;;;;;;;;;21.00;50.20;;;;;;452707;263;1217;-50
2022/09/12 06:45:55;;;;;;;;;;;21.00;50.00;;;;;;452544;262;1256;-50
2022/09/12 06:47:57;;;;;;;;;;;21.00;50.00;;;;;;452376;263;1332;-50
2022/09/12 06:49:58;;;;;;;;;;;21.00;49.90;;;;;;452720;262;1284;-49
2022/09/12 06:52:00;;;;;;;;;;;21.00;49.80;;;;;;452758;263;1193;-50
2022/09/12 06:54:01;;;;;;;;;;;21.00;49.70;;;;;;452435;263;1559;-50
2022/09/12 06:56:02;;;;;;;;;;;21.00;49.70;;;;;;452592;263;1185;-50
2022/09/12 06:58:04;;;;;;;;;;;21.00;49.60;;;;;;452431;263;1254;-51
2022/09/12 07:00:05;;;;;;;;;;;21.00;49.60;;;;;;452520;262;2224;-51
2022/09/12 07:02:07;;;;;;;;;;;21.00;49.40;;;;;;452550;263;1272;-51
2022/09/12 07:04:08;;;;;;;;;;;21.00;49.40;;;;;;452692;263;2163;-50
2022/09/12 07:06:09;;;;;;;;;;;21.00;49.20;;;;;;452354;263;1219;-50
2022/09/12 07:08:10;;;;;;;;;;;21.00;49.20;;;;;;452497;263;1195;-50
2022/09/12 07:10:12;;;;;;;;;;;21.00;49.20;;;;;;452398;263;1196;-51
2022/09/12 07:12:13;;;;;;;;;;;21.00;49.20;;;;;;452553;263;1379;-50
2022/09/12 07:14:14;;;;;;;;;;;21.00;49.10;;;;;;452644;263;1245;-50
2022/09/12 07:16:16;;;;;;;;;;;21.10;49.10;;;;;;452380;263;1308;-50
2022/09/12 07:18:17;;;;;;;;;;;21.10;49.00;;;;;;452635;263;1227;-51
2022/09/12 07:20:18;;;;;;;;;;;21.10;49.00;;;;;;452501;263;2205;-50
2022/09/12 07:22:19;;;;;;;;;;;21.10;49.00;;;;;;452198;263;1291;-50
2022/09/12 07:24:21;;;;;;;;;;;21.10;48.90;;;;;;452479;263;1190;-50
2022/09/12 07:26:22;;;;;;;;;;;21.10;49.00;;;;;;452841;262;1379;-50
2022/09/12 07:28:23;;;;;;;;;;;21.00;48.70;;;;;;452470;263;1221;-50
2022/09/12 07:30:25;;;;;;;;;;;21.10;48.80;;;;;;452342;263;1309;-50
2022/09/12 07:32:26;;;;;;;;;;;21.10;48.70;;;;;;452478;263;1410;-50
2022/09/12 07:34:27;;;;;;;;;;;21.10;48.70;;;;;;452520;263;1182;-50
2022/09/12 07:36:29;;;;;;;;;;;21.10;48.70;;;;;;452376;263;1564;-50
2022/09/12 07:38:30;;;;;;;;;;;21.10;48.60;;;;;;452623;263;1581;-50
2022/09/12 07:40:31;;;;;;;;;;;21.10;48.50;;;;;;452229;263;2205;-50
2022/09/12 07:42:33;;;;;;;;;;;21.10;48.50;;;;;;452465;263;1665;-50
2022/09/12 07:44:34;;;;;;;;;;;21.10;48.50;;;;;;452350;263;1320;-50
2022/09/12 07:46:35;;;;;;;;;;;21.10;48.50;;;;;;452487;262;1352;-50
2022/09/12 07:48:37;;;;;;;;;;;21.10;48.50;;;;;;452464;263;1304;-50
2022/09/12 07:50:38;;;;;;;;;;;21.10;48.40;;;;;;452548;263;1204;-50
2022/09/12 07:52:40;;;;;;;;;;;21.10;48.40;;;;;;452356;263;1247;-50
2022/09/12 07:54:41;;;;;;;;;;;21.10;48.40;;;;;;452629;263;1262;-50
2022/09/12 07:56:42;;;;;;;;;;;21.10;48.30;;;;;;452347;263;1529;-51
2022/09/12 07:58:44;;;;;;;;;;;21.10;48.30;;;;;;452536;262;1288;-50
2022/09/12 08:00:45;;;;;;;;;;;21.10;48.30;;;;;;452301;263;2170;-50
2022/09/12 08:02:46;;;;;;;;;;;21.10;48.20;;;;;;452597;262;1349;-50
2022/09/12 08:04:48;;;;;;;;;;;21.10;48.20;;;;;;452734;263;1259;-50
2022/09/12 08:06:49;;;;;;;;;;;21.10;48.10;;;;;;452827;263;1188;-50
2022/09/12 08:08:50;;;;;;;;;;;21.10;48.10;;;;;;452367;263;1162;-50
2022/09/12 08:10:52;;;;;;;;;;;21.10;48.00;;;;;;452757;263;1225;-50
2022/09/12 08:12:53;;;;;;;;;;;21.10;48.10;;;;;;452405;263;1265;-50
2022/09/12 08:14:54;;;;;;;;;;;21.10;48.00;;;;;;452859;263;1247;-50
2022/09/12 08:16:56;;;;;;;;;;;21.10;48.00;;;;;;452362;263;1321;-50
2022/09/12 08:18:57;;;;;;;;;;;21.10;47.90;;;;;;452572;263;1243;-50
2022/09/12 08:20:58;;;;;;;;;;;21.10;47.90;;;;;;452241;263;2224;-50
2022/09/12 08:23:00;;;;;;;;;;;21.10;48.00;;;;;;452729;263;1375;-50
2022/09/12 08:25:01;;;;;;;;;;;21.10;47.90;;;;;;452542;262;1446;-50
2022/09/12 08:27:03;;;;;;;;;;;21.10;47.90;;;;;;452316;263;1290;-50
2022/09/12 08:29:04;;;;;;;;;;;21.10;47.80;;;;;;452964;263;1238;-50
2022/09/12 08:31:05;;;;;;;;;;;21.10;47.80;;;;;;452742;263;1273;-51
2022/09/12 08:33:07;;;;;;;;;;;21.10;47.70;;;;;;452438;263;1259;-50
2022/09/12 08:35:08;;;;;;;;;;;21.10;47.80;;;;;;452331;263;1411;-50
2022/09/12 08:37:10;;;;;;;;;;;21.10;47.70;;;;;;452492;263;1145;-50
2022/09/12 08:39:11;;;;;;;;;;;21.10;47.70;;;;;;452480;263;1168;-50
2022/09/12 08:41:12;;;;;;;;;;;21.10;47.70;;;;;;452250;263;2186;-50
2022/09/12 08:43:14;;;;;;;;;;;21.20;47.80;;;;;;452251;263;1111;-49
2022/09/12 08:45:15;;;;;;;;;;;21.20;47.60;;;;;;452548;263;1176;-50
2022/09/12 08:47:16;;;;;;;;;;;21.20;47.70;;;;;;452475;262;1218;-50
2022/09/12 08:49:18;;;;;;;;;;;21.20;47.80;;;;;;452473;262;1224;-50
2022/09/12 08:51:19;;;;;;;;;;;21.20;47.70;;;;;;452319;263;1148;-50
2022/09/12 08:53:20;;;;;;;;;;;21.20;47.70;;;;;;452498;263;1160;-50
2022/09/12 08:55:21;;;;;;;;;;;21.20;47.60;;;;;;452301;263;1192;-50
2022/09/12 08:57:23;;;;;;;;;;;21.20;47.60;;;;;;452195;263;1103;-50
2022/09/12 08:59:25;;;;;;;;;;;21.20;47.60;;;;;;452301;263;1233;-50
2022/09/12 09:01:26;;;;;;;;;;;21.20;47.60;;;;;;452675;263;2182;-50
2022/09/12 09:03:28;;;;;;;;;;;21.30;47.50;;;;;;452115;263;1099;-50
2022/09/12 09:05:29;;;;;;;;;;;21.30;47.70;;;;;;452358;263;1105;-50
2022/09/12 09:07:31;;;;;;;;;;;21.30;47.60;;;;;;452405;263;1237;-50
2022/09/12 09:09:32;;;;;;;;;;;21.30;47.70;;;;;;452232;263;1544;-50
2022/09/12 09:11:33;;;;;;;;;;;21.20;47.70;;;;;;452384;263;1221;-50
2022/09/12 09:15:54;;;;;;;;;;;21.30;47.50;;;;;;452469;263;1197;-50
2022/09/12 09:17:55;;;;;;;;;;;21.30;47.50;;;;;;452299;263;1241;-50
2022/09/12 09:19:56;;;;;;;;;;;21.30;47.50;;;;;;452287;263;2213;-50
2022/09/12 09:21:58;;;;;;;;;;;21.30;47.40;;;;;;452560;263;1262;-50
2022/09/12 09:23:59;;;;;;;;;;;21.30;47.40;;;;;;452345;263;1639;-49
2022/09/12 09:26:00;;;;;;;;;;;21.30;47.40;;;;;;452278;263;1504;-50
2022/09/12 09:28:02;;;;;;;;;;;21.40;47.30;;;;;;452266;263;1247;-50
2022/09/12 09:30:04;;;;;;;;;;;21.30;47.20;;;;;;452406;262;1112;-51
2022/09/12 09:32:04;;;;;;;;;;;21.30;47.20;;;;;;452297;263;2456;-50
2022/09/12 09:34:06;;;;;;;;;;;21.40;47.10;;;;;;452293;263;1234;-50
2022/09/12 09:36:07;;;;;;;;;;;21.40;47.20;;;;;;452294;263;1165;-50
2022/09/12 09:38:08;;;;;;;;;;;21.40;47.10;;;;;;452440;262;1155;-50
2022/09/12 09:40:10;;;;;;;;;;;21.40;47.10;;;;;;452422;263;2158;-50
2022/09/12 09:42:11;;;;;;;;;;;21.40;47.00;;;;;;452465;263;1136;-50
2022/09/12 09:44:12;;;;;;;;;;;21.40;47.00;;;;;;452281;263;1145;-50
2022/09/12 09:46:14;;;;;;;;;;;21.40;47.00;;;;;;452488;262;1228;-50
2022/09/12 09:48:15;;;;;;;;;;;21.40;46.90;;;;;;452207;263;2349;-50
2022/09/12 09:50:16;;;;;;;;;;;21.40;47.00;;;;;;452224;263;1255;-50
2022/09/12 09:52:18;;;;;;;;;;;21.40;46.90;;;;;;452376;263;1283;-50
2022/09/12 09:54:19;;;;;;;;;;;21.40;46.80;;;;;;452266;263;1191;-50
2022/09/12 09:56:21;;;;;;;;;;;21.50;46.90;;;;;;452210;263;1519;-49
2022/09/12 09:58:22;;;;;;;;;;;21.40;46.70;;;;;;451990;262;1323;-50
2022/09/12 10:00:23;;;;;;;;;;;21.40;46.80;;;;;;452410;262;2213;-50
2022/09/12 10:02:26;;;;;;;;;;;21.50;46.80;;;;;;452423;263;1283;-50
2022/09/12 10:04:26;;;;;;;;;;;21.50;46.70;;;;;;452110;262;1377;-50
2022/09/12 10:06:27;;;;;;;;;;;21.50;46.60;;;;;;452223;263;1545;-50
2022/09/12 10:08:29;;;;;;;;;;;21.50;46.60;;;;;;451410;263;1306;-50
2022/09/12 10:10:30;;;;;;;;;;;21.50;46.60;;;;;;452362;263;1189;-50
2022/09/12 10:12:31;;;;;;;;;;;21.50;46.60;;;;;;452198;262;1726;-50
2022/09/12 10:14:33;;;;;;;;;;;21.50;46.60;;;;;;452464;263;1324;-50
2022/09/12 10:16:34;;;;;;;;;;;21.50;46.60;;;;;;452230;262;1656;-50
2022/09/12 10:18:36;;;;;;;;;;;21.50;46.50;;;;;;452362;263;1212;-50
2022/09/12 10:20:37;;;;;;;;;;;21.50;46.60;;;;;;452386;263;2190;-50
2022/09/12 10:22:38;;;;;;;;;;;21.50;46.60;;;;;;452134;263;1335;-50
2022/09/12 10:24:40;;;;;;;;;;;21.50;46.40;;;;;;452258;263;1195;-49
2022/09/12 10:26:41;;;;;;;;;;;21.50;46.60;;;;;;452234;263;1643;-50
2022/09/12 10:28:43;;;;;;;;;;;21.50;46.50;;;;;;452452;263;1228;-51
2022/09/12 10:30:44;;;;;;;;;;;21.60;46.50;;;;;;452626;263;1280;-50
2022/09/12 10:32:45;;;;;;;;;;;21.60;46.50;;;;;;452459;263;1242;-50
2022/09/12 10:34:46;;;;;;;;;;;21.60;46.50;;;;;;452592;263;1279;-50
2022/09/12 10:36:48;;;;;;;;;;;21.60;46.50;;;;;;452962;263;1344;-51
2022/09/12 10:38:49;;;;;;;;;;;21.50;46.50;;;;;;452712;262;1110;-49
2022/09/12 10:40:50;;;;;;;;;;;21.50;46.50;;;;;;452697;263;2170;-50
2022/09/12 10:42:52;;;;;;;;;;;21.50;46.50;;;;;;452887;263;1185;-50
2022/09/12 10:44:53;;;;;;;;;;;21.50;46.50;;;;;;452421;263;1076;-50
2022/09/12 10:46:55;;;;;;;;;;;21.50;46.60;;;;;;452855;263;1165;-51
2022/09/12 10:48:56;;;;;;;;;;;21.50;46.60;;;;;;452599;263;1198;-50
2022/09/12 10:50:57;;;;;;;;;;;21.50;46.60;;;;;;452666;263;1176;-50
2022/09/12 10:52:58;;;;;;;;;;;21.40;46.50;;;;;;452266;263;1179;-50
2022/09/12 10:55:00;;;;;;;;;;;21.40;46.70;;;;;;452280;263;1177;-50
2022/09/12 10:57:01;;;;;;;;;;;21.40;46.80;;;;;;452285;263;1276;-50
2022/09/12 10:59:02;;;;;;;;;;;21.40;46.80;;;;;;452634;262;1240;-50
2022/09/12 11:01:05;;;;;;;;;;;21.40;46.60;;;;;;452237;263;2229;-50
2022/09/12 11:03:06;;;;;;;;;;;21.40;46.80;;;;;;452147;263;2591;-51
2022/09/12 11:05:07;;;;;;;;;;;21.40;46.80;;;;;;452324;263;1236;-50
2022/09/12 11:07:09;;;;;;;;;;;21.40;47.00;;;;;;452234;263;1561;-50
2022/09/12 11:09:10;;;;;;;;;;;21.30;46.90;;;;;;452180;263;1085;-50
2022/09/12 11:11:11;;;;;;;;;;;21.30;47.00;;;;;;452063;263;1250;-50
2022/09/12 11:13:13;;;;;;;;;;;21.30;46.90;;;;;;452419;262;1427;-50
2022/09/12 11:15:15;;;;;;;;;;;21.40;47.00;;;;;;452351;263;1182;-50
2022/09/12 11:17:15;;;;;;;;;;;21.40;46.80;;;;;;452251;263;1994;-50
2022/09/12 11:19:17;;;;;;;;;;;21.40;46.80;;;;;;452300;259;1314;-50
2022/09/12 11:21:18;;;;;;;;;;;21.40;46.80;;;;;;452235;263;2174;-50
2022/09/12 11:23:19;;;;;;;;;;;21.30;46.60;;;;;;452230;263;1252;-50
2022/09/12 11:25:21;;;;;;;;;;;21.30;46.70;;;;;;452265;263;1351;-50
2022/09/12 11:27:22;;;;;;;;;;;21.30;46.70;;;;;;452374;263;1692;-50
2022/09/12 11:29:23;;;;;;;;;;;21.30;46.80;;;;;;452275;263;1327;-50
2022/09/12 11:31:24;;;;;;;;;;;21.30;46.80;;;;;;452499;263;1323;-50
2022/09/12 11:33:26;;;;;;;;;;;21.30;46.80;;;;;;452274;263;1242;-50
2022/09/12 11:35:27;;;;;;;;;;;21.30;46.80;;;;;;452309;263;1246;-50
2022/09/12 11:37:28;;;;;;;;;;;21.30;46.70;;;;;;452152;262;1295;-51
2022/09/12 11:39:30;;;;;;;;;;;21.30;46.70;;;;;;452676;263;1190;-51
2022/09/12 11:41:32;;;;;;;;;;;21.30;46.50;;;;;;452267;263;2233;-50
2022/09/12 11:43:32;;;;;;;;;;;21.30;46.80;;;;;;452279;263;2357;-51
2022/09/12 11:45:34;;;;;;;;;;;21.30;46.70;;;;;;452319;263;1236;-50
2022/09/12 11:47:35;;;;;;;;;;;21.30;46.60;;;;;;452320;262;1185;-50
2022/09/12 11:49:36;;;;;;;;;;;21.30;46.70;;;;;;452434;263;1209;-51
2022/09/12 11:51:38;;;;;;;;;;;21.30;46.50;;;;;;452293;263;1424;-50
2022/09/12 11:53:39;;;;;;;;;;;21.30;46.70;;;;;;452577;263;1166;-50
2022/09/12 11:55:40;;;;;;;;;;;21.30;46.70;;;;;;452433;262;1264;-50
2022/09/12 11:57:42;;;;;;;;;;;21.30;46.50;;;;;;452626;262;1225;-50
2022/09/12 11:59:43;;;;;;;;;;;21.30;46.60;;;;;;452644;263;1269;-50